createdAt,value
2022-11-10T06:31:31.583Z,95.46
2022-11-10T06:32:31.275Z,95.94
2022-11-10T06:33:31.408Z,95.94
2022-11-10T06:34:31.277Z,96.12
2022-11-10T06:35:31.715Z,96.69
2022-11-10T06:36:31.418Z,97.31
2022-11-10T06:37:31.406Z,96.55
2022-11-10T06:38:31.411Z,97.36
2022-11-10T06:39:31.321Z,97.45
2022-11-10T06:40:31.712Z,96.64
2022-11-10T06:41:31.431Z,96.64
2022-11-10T06:42:31.499Z,96.74
2022-11-10T06:43:31.476Z,96.74
2022-11-10T06:44:31.620Z,96.74
2022-11-10T06:45:31.456Z,96.74
2022-11-10T06:46:31.379Z,97.31
2022-11-10T06:47:31.680Z,97.31
2022-11-10T06:48:31.360Z,97.69
2022-11-10T06:49:31.849Z,97.6
2022-11-10T06:50:31.368Z,97.31
2022-11-10T06:51:31.395Z,97.41
2022-11-10T06:52:31.398Z,97.97
2022-11-10T06:53:32.556Z,98.54
2022-11-10T06:54:31.437Z,98.16
2022-11-10T06:55:31.527Z,97.78
2022-11-10T06:56:31.524Z,97.5
2022-11-10T06:57:31.450Z,97.6
2022-11-10T06:58:31.697Z,97.6
2022-11-10T06:59:31.880Z,97.31
2022-11-10T07:00:31.472Z,97.97
2022-11-10T07:01:31.575Z,97.88
2022-11-10T07:02:31.819Z,97.97
2022-11-10T07:03:31.977Z,97.69
2022-11-10T07:04:31.607Z,97.97
2022-11-10T07:05:31.503Z,98.26
2022-11-10T07:06:31.764Z,98.12
2022-11-10T07:07:31.630Z,98.21
2022-11-10T07:08:31.968Z,97.45
2022-11-10T07:09:31.983Z,97.45
2022-11-10T07:10:31.657Z,97.64
2022-11-10T07:11:31.675Z,97.83
2022-11-10T07:12:31.999Z,97.17
2022-11-10T07:13:31.820Z,97.36
2022-11-10T07:14:31.579Z,97.17
2022-11-10T07:15:31.873Z,97.45
2022-11-10T07:16:31.864Z,97.55
2022-11-10T07:17:32.044Z,97.45
2022-11-10T07:18:31.748Z,97.27
2022-11-10T07:19:31.936Z,97.64
2022-11-10T07:20:31.651Z,97.92
2022-11-10T07:21:31.681Z,97.55
2022-11-10T07:22:32.145Z,97.45
2022-11-10T07:23:31.671Z,97.74
2022-11-10T07:24:31.733Z,97.64
2022-11-10T07:25:31.682Z,97.07
2022-11-10T07:26:31.803Z,98.02
2022-11-10T07:27:32.240Z,97.6
2022-11-10T07:28:31.821Z,97.12
2022-11-10T07:29:31.747Z,96.36
2022-11-10T07:30:31.898Z,96.74
2022-11-10T07:31:31.857Z,96.36
2022-11-10T07:32:32.191Z,95.6
2022-11-10T07:33:31.957Z,95.6
2022-11-10T07:34:31.952Z,95.27
2022-11-10T07:35:32.130Z,95.17
2022-11-10T07:36:31.882Z,94.6
2022-11-10T07:37:31.878Z,94.03
2022-11-10T07:38:31.806Z,94.42
2022-11-10T07:39:31.933Z,93.46
2022-11-10T07:40:32.251Z,92.8
2022-11-10T07:41:32.229Z,93.37
2022-11-10T07:42:32.271Z,92.41
2022-11-10T07:43:31.858Z,92.61
2022-11-10T07:44:31.863Z,92.61
2022-11-10T07:45:32.049Z,92.56
2022-11-10T07:46:32.468Z,91.99
2022-11-10T07:47:32.043Z,91.8
2022-11-10T07:48:32.002Z,91.8
2022-11-10T07:49:32.094Z,91.61
2022-11-10T07:50:31.920Z,91.13
2022-11-10T07:51:32.409Z,90.84
2022-11-10T07:52:32.033Z,91.03
2022-11-10T07:53:32.061Z,90.47
2022-11-10T07:54:32.052Z,90.7
2022-11-10T07:55:32.074Z,89.89
2022-11-10T07:56:32.075Z,90.42
2022-11-10T07:57:32.099Z,89.84
2022-11-10T07:58:32.094Z,89.56
2022-11-10T07:59:32.133Z,89.18
2022-11-10T08:00:32.127Z,88.89
2022-11-10T08:01:32.225Z,89.27
2022-11-10T08:02:32.187Z,89.27
2022-11-10T08:03:32.145Z,89.47
2022-11-10T08:04:32.157Z,89.08
2022-11-10T08:05:32.498Z,87.65
2022-11-10T08:06:37.435Z,88.13
2022-11-10T08:07:33.032Z,87.75
2022-11-10T08:08:32.199Z,87.46
2022-11-10T08:09:32.897Z,87.37
2022-11-10T08:10:32.178Z,86.94
2022-11-10T08:11:32.123Z,86.75
2022-11-10T08:12:35.899Z,86.36
2022-11-10T08:13:32.144Z,86.55
2022-11-10T08:14:32.145Z,85.41
2022-11-10T08:15:32.352Z,86.36
2022-11-10T08:16:32.206Z,85.89
2022-11-10T08:17:32.961Z,85.8
2022-11-10T08:18:37.503Z,85.7
2022-11-10T08:19:32.927Z,85.03
2022-11-10T08:20:32.313Z,85.32
2022-11-10T08:21:32.325Z,84.46
2022-11-10T08:22:32.318Z,84.03
2022-11-10T08:23:32.719Z,84.12
2022-11-10T08:24:32.265Z,84.31
2022-11-10T08:25:38.145Z,83.26
2022-11-10T08:26:32.402Z,83.55
2022-11-10T08:27:32.439Z,83.93
2022-11-10T08:28:32.383Z,83.84
2022-11-10T08:29:32.546Z,83.02
2022-11-10T08:30:32.703Z,82.45
2022-11-10T08:31:32.430Z,83.02
2022-11-10T08:32:32.437Z,82.35
2022-11-10T08:33:32.623Z,82.35
2022-11-10T08:34:32.480Z,81.68
2022-11-10T08:35:32.373Z,81.4
2022-11-10T08:36:32.404Z,81.06
2022-11-10T08:37:32.420Z,81.06
2022-11-10T08:38:32.540Z,80.39
2022-11-10T08:39:41.168Z,80.3
2022-11-10T08:40:32.450Z,80.58
2022-11-10T08:41:32.788Z,79.63
2022-11-10T08:42:32.468Z,80.11
2022-11-10T08:43:32.903Z,80.3
2022-11-10T08:44:32.500Z,79.78
2022-11-10T08:45:32.569Z,80.26
2022-11-10T08:46:32.716Z,80.35
2022-11-10T08:47:32.816Z,80.44
2022-11-10T08:48:32.800Z,80.83
2022-11-10T08:49:33.417Z,81.59
2022-11-10T08:50:34.317Z,81.78
2022-11-10T08:51:39.137Z,81.78
2022-11-10T08:52:32.655Z,81.59
2022-11-10T08:53:32.597Z,81.78
2022-11-10T08:54:32.620Z,81.88
2022-11-10T08:55:32.905Z,81.88
2022-11-10T08:56:33.402Z,81.3
2022-11-10T08:57:32.651Z,81.4
2022-11-10T08:58:32.898Z,81.59
2022-11-10T08:59:32.926Z,81.59
2022-11-10T09:00:32.668Z,81.4
2022-11-10T09:01:32.788Z,81.12
2022-11-10T09:02:32.913Z,80.35
2022-11-10T09:03:32.709Z,80.2
2022-11-10T09:04:32.919Z,79.25
2022-11-10T09:05:33.021Z,79.06
2022-11-10T09:06:33.016Z,79.06
2022-11-10T09:07:32.859Z,78.3
2022-11-10T09:08:32.766Z,78.3
2022-11-10T09:09:32.858Z,78.1
2022-11-10T09:10:32.934Z,77.47
2022-11-10T09:11:33.715Z,77.67
2022-11-10T09:12:33.757Z,77.86
2022-11-10T09:13:34.496Z,76.71
2022-11-10T09:14:32.944Z,77.09
2022-11-10T09:15:33.122Z,76.62
2022-11-10T09:16:32.948Z,76.71
2022-11-10T09:17:32.923Z,77.28
2022-11-10T09:18:33.008Z,76.81
2022-11-10T09:19:33.355Z,77
2022-11-10T09:20:32.911Z,77
2022-11-10T09:21:32.937Z,77.38
2022-11-10T09:22:32.950Z,77.28
2022-11-10T09:23:33.149Z,76.33
2022-11-10T09:24:33.898Z,75.98
2022-11-10T09:25:32.975Z,74.93
2022-11-10T09:26:33.020Z,74.84
2022-11-10T09:27:33.279Z,74.65
2022-11-10T09:28:33.004Z,74.46
2022-11-10T09:29:33.911Z,73.88
2022-11-10T09:30:33.147Z,74.84
2022-11-10T09:31:33.152Z,74.08
2022-11-10T09:32:33.080Z,73.98
2022-11-10T09:33:33.192Z,74.74
2022-11-10T09:34:33.192Z,74.49
2022-11-10T09:35:33.102Z,73.44
2022-11-10T09:36:33.106Z,72.78
2022-11-10T09:37:33.187Z,73.07
2022-11-10T09:38:33.332Z,72.87
2022-11-10T09:39:33.168Z,73.25
2022-11-10T09:40:33.791Z,72.97
2022-11-10T09:41:33.176Z,73.16
2022-11-10T09:42:33.859Z,73.83
2022-11-10T09:43:33.514Z,73.69
2022-11-10T09:44:33.956Z,74.11
2022-11-10T09:45:39.441Z,73.73
2022-11-10T09:46:33.341Z,73.63
2022-11-10T09:48:03.390Z,73.07
2022-11-10T09:48:33.348Z,73.39
2022-11-10T09:49:33.330Z,72.62
2022-11-10T09:50:33.299Z,71.67
2022-11-10T09:51:33.597Z,72.14
2022-11-10T09:52:33.402Z,70.71
2022-11-10T09:53:34.604Z,70.71
2022-11-10T09:54:33.400Z,69.7
2022-11-10T09:55:33.690Z,70.61
2022-11-10T09:56:33.632Z,71.42
2022-11-10T09:57:33.420Z,71.22
2022-11-10T09:58:33.820Z,70.17
2022-11-10T09:59:33.727Z,70.65
2022-11-10T10:00:33.465Z,69.6
2022-11-10T10:01:33.560Z,69.6
2022-11-10T10:02:33.782Z,69.5
2022-11-10T10:03:33.497Z,68.35
2022-11-10T10:04:33.532Z,68.16
2022-11-10T10:05:33.510Z,68.55
2022-11-10T10:07:10.533Z,69.31
2022-11-10T10:07:33.885Z,69.27
2022-11-10T10:08:33.572Z,69.66
2022-11-10T10:09:33.591Z,70.14
2022-11-10T10:10:33.594Z,69.66
2022-11-10T10:11:33.699Z,70.14
2022-11-10T10:12:33.715Z,70.61
2022-11-10T10:13:33.657Z,69.31
2022-11-10T10:14:33.769Z,68.64
2022-11-10T10:15:33.949Z,69.7
2022-11-10T10:16:33.691Z,68.64
2022-11-10T10:17:37.148Z,69.21
2022-11-10T10:18:34.026Z,69.41
2022-11-10T10:19:33.718Z,68.07
2022-11-10T10:20:34.159Z,68.16
2022-11-10T10:21:34.847Z,67.97
2022-11-10T10:22:33.761Z,67.69
2022-11-10T10:24:12.478Z,69.02
2022-11-10T10:24:33.935Z,69.41
2022-11-10T10:25:34.058Z,68.84
2022-11-10T10:26:33.943Z,68.74
2022-11-10T10:27:34.106Z,68.74
2022-11-10T10:28:33.844Z,67.97
2022-11-10T10:29:40.004Z,68.16
2022-11-10T10:30:33.867Z,67.49
2022-11-10T10:31:34.197Z,67.88
2022-11-10T10:32:33.902Z,67.69
2022-11-10T10:33:34.637Z,68.58
2022-11-10T10:34:34.182Z,67.24
2022-11-10T10:35:37.770Z,66.76
2022-11-10T10:36:33.988Z,66.76
2022-11-10T10:37:34.100Z,66.96
2022-11-10T10:38:34.006Z,66.57
2022-11-10T10:39:34.260Z,66.76
2022-11-10T10:40:34.007Z,66.67
2022-11-10T10:42:34.486Z,66.86
2022-11-10T10:43:34.170Z,66.96
2022-11-10T10:44:34.068Z,67.82
2022-11-10T10:45:34.242Z,67.24
2022-11-10T10:46:37.932Z,67.53
2022-11-10T10:47:34.439Z,66.67
2022-11-10T10:48:34.134Z,66.57
2022-11-10T10:49:34.202Z,66.09
2022-11-10T10:50:34.163Z,66.19
2022-11-10T10:51:34.206Z,66.47
2022-11-10T10:52:34.456Z,66.28
2022-11-10T10:53:34.225Z,66.96
2022-11-10T10:54:34.226Z,66.47
2022-11-10T10:55:34.235Z,66.09
2022-11-10T10:56:35.285Z,66.19
2022-11-10T10:57:34.273Z,65.81
2022-11-10T10:58:34.291Z,65.9
2022-11-10T10:59:34.299Z,65.26
2022-11-10T11:00:34.368Z,65.65
2022-11-10T11:01:34.615Z,65.08
2022-11-10T11:02:34.397Z,64.5
2022-11-10T11:03:34.658Z,64.12
2022-11-10T11:04:34.385Z,63.64
2022-11-10T11:05:34.397Z,63.73
2022-11-10T11:06:34.580Z,63.54
2022-11-10T11:07:34.448Z,64.31
2022-11-10T11:08:34.444Z,64.59
2022-11-10T11:09:34.776Z,64.31
2022-11-10T11:10:34.491Z,63.73
2022-11-10T11:11:34.472Z,64.31
2022-11-10T11:12:34.756Z,64.4
2022-11-10T11:13:34.786Z,63.73
2022-11-10T11:14:34.609Z,63.35
2022-11-10T11:15:34.555Z,63.16
2022-11-10T11:16:34.556Z,63.45
2022-11-10T11:17:35.297Z,62.77
2022-11-10T11:18:34.574Z,63
2022-11-10T11:19:34.896Z,63.57
2022-11-10T11:20:35.091Z,62.9
2022-11-10T11:21:35.227Z,62.62
2022-11-10T11:22:34.849Z,62.04
2022-11-10T11:23:36.079Z,61.94
2022-11-10T11:24:35.518Z,61.47
2022-11-10T11:25:35.697Z,62.33
2022-11-10T11:26:34.775Z,62.9
2022-11-10T11:27:34.742Z,62.9
2022-11-10T11:28:34.744Z,63.39
2022-11-10T11:29:34.851Z,62.81
2022-11-10T11:30:34.882Z,62.36
2022-11-10T11:31:38.807Z,61.02
2022-11-10T11:32:35.317Z,59.87
2022-11-10T11:33:34.877Z,60.25
2022-11-10T11:34:34.929Z,59.33
2022-11-10T11:35:35.132Z,59.23
2022-11-10T11:36:35.285Z,58.37
2022-11-10T11:37:34.980Z,58.17
2022-11-10T11:38:34.894Z,58.27
2022-11-10T11:39:34.915Z,58.46
2022-11-10T11:40:34.918Z,58.94
2022-11-10T11:41:34.932Z,57.98
2022-11-10T11:42:34.977Z,57.92
2022-11-10T11:43:35.236Z,56.96
2022-11-10T11:44:34.999Z,57.34
2022-11-10T11:45:35.142Z,57.06
2022-11-10T11:46:35.472Z,57.53
2022-11-10T11:47:35.684Z,57.15
2022-11-10T11:48:35.055Z,57.24
2022-11-10T11:49:35.807Z,57.34
2022-11-10T11:50:35.092Z,57.34
2022-11-10T11:51:36.103Z,58.27
2022-11-10T11:52:35.369Z,58.94
2022-11-10T11:53:35.149Z,57.79
2022-11-10T11:54:35.455Z,58.08
2022-11-10T11:55:35.198Z,57.79
2022-11-10T11:56:35.198Z,58.46
2022-11-10T11:57:41.066Z,58.84
2022-11-10T11:58:35.334Z,59.2
2022-11-10T11:59:35.254Z,60.35
2022-11-10T12:00:35.262Z,60.16
2022-11-10T12:01:35.383Z,60.44
2022-11-10T12:02:35.671Z,61.21
2022-11-10T12:03:35.574Z,61.11
2022-11-10T12:04:35.593Z,61.28
2022-11-10T12:05:35.466Z,61.31
2022-11-10T12:06:35.454Z,61.21
2022-11-10T12:07:35.660Z,61.21
2022-11-10T12:08:35.644Z,60.83
2022-11-10T12:09:35.479Z,60.44
2022-11-10T12:10:38.216Z,61.02
2022-11-10T12:11:35.475Z,60.64
2022-11-10T12:12:35.463Z,60.83
2022-11-10T12:13:35.477Z,60.44
2022-11-10T12:14:35.562Z,60.16
2022-11-10T12:15:35.536Z,59.97
2022-11-10T12:16:35.530Z,59.11
2022-11-10T12:17:35.607Z,59.2
2022-11-10T12:18:35.564Z,60.35
2022-11-10T12:19:35.586Z,59.68
2022-11-10T12:20:35.602Z,59.39
2022-11-10T12:21:35.650Z,58.62
2022-11-10T12:22:35.908Z,59.11
2022-11-10T12:23:35.961Z,58.15
2022-11-10T12:24:35.760Z,57.57
2022-11-10T12:25:35.696Z,58.05
2022-11-10T12:26:36.067Z,57.57
2022-11-10T12:27:35.749Z,58.05
2022-11-10T12:28:35.778Z,58.05
2022-11-10T12:29:35.803Z,58.05
2022-11-10T12:30:35.984Z,57.57
2022-11-10T12:31:35.785Z,57.95
2022-11-10T12:32:35.805Z,59.39
2022-11-10T12:33:35.816Z,58.72
2022-11-10T12:34:35.855Z,57.57
2022-11-10T12:35:35.882Z,57.57
2022-11-10T12:36:35.868Z,58.53
2022-11-10T12:37:36.183Z,58.34
2022-11-10T12:38:35.895Z,58.72
2022-11-10T12:39:36.257Z,58.02
2022-11-10T12:40:41.933Z,59.36
2022-11-10T12:41:35.959Z,60.1
2022-11-10T12:42:36.243Z,60.38
2022-11-10T12:43:36.246Z,60.77
2022-11-10T12:44:36.001Z,62.08
2022-11-10T12:45:36.271Z,61.22
2022-11-10T12:46:36.307Z,61.12
2022-11-10T12:47:36.049Z,60.93
2022-11-10T12:48:36.331Z,61.05
2022-11-10T12:49:36.359Z,60.48
2022-11-10T12:50:36.104Z,60.96
2022-11-10T12:51:36.149Z,59.72
2022-11-10T12:52:36.151Z,58.59
2022-11-10T12:53:36.442Z,58.59
2022-11-10T12:54:36.215Z,58.02
2022-11-10T12:55:36.509Z,57.86
2022-11-10T12:56:36.220Z,58.44
2022-11-10T12:57:36.266Z,57.38
2022-11-10T12:58:36.266Z,57.28
2022-11-10T12:59:36.549Z,58.4
2022-11-10T13:00:36.563Z,58.98
2022-11-10T13:01:36.626Z,59.08
2022-11-10T13:02:36.583Z,58.79
2022-11-10T13:03:36.535Z,59.27
2022-11-10T13:04:36.668Z,59.17
2022-11-10T13:05:36.668Z,59.65
2022-11-10T13:06:36.790Z,59.55
2022-11-10T13:07:36.671Z,58.69
2022-11-10T13:08:36.448Z,57.76
2022-11-10T13:09:36.471Z,55.58
2022-11-10T13:10:36.504Z,53.82
2022-11-10T13:11:36.799Z,52.12
2022-11-10T13:12:36.501Z,50.34
2022-11-10T13:13:36.522Z,49.48
2022-11-10T13:14:36.811Z,48.83
2022-11-10T13:15:36.579Z,48.64
2022-11-10T13:16:36.840Z,47.87
2022-11-10T13:17:36.610Z,47.51
2022-11-10T13:18:37.041Z,47.61
2022-11-10T13:19:36.909Z,47.58
2022-11-10T13:20:36.653Z,47.2
2022-11-10T13:21:36.741Z,47.3
2022-11-10T13:22:36.998Z,48.45
2022-11-10T13:23:36.967Z,50.8
2022-11-10T13:24:36.905Z,52.86
2022-11-10T13:25:36.777Z,54.56
2022-11-10T13:26:37.063Z,56.26
2022-11-10T13:27:37.270Z,57.48
2022-11-10T13:28:36.800Z,58.98
2022-11-10T13:29:37.266Z,59.36
2022-11-10T13:30:37.107Z,60.1
2022-11-10T13:31:37.137Z,61.34
2022-11-10T13:32:36.879Z,61.15
2022-11-10T13:33:36.958Z,61.98
2022-11-10T13:34:37.159Z,62.17
2022-11-10T13:35:37.066Z,62.55
2022-11-10T13:36:37.188Z,63.42
2022-11-10T13:37:36.961Z,63.8
2022-11-10T13:38:37.439Z,64.66
2022-11-10T13:39:37.342Z,63.99
2022-11-10T13:40:38.476Z,64.15
2022-11-10T13:41:37.307Z,64.15
2022-11-10T13:42:37.027Z,63.96
2022-11-10T13:43:37.339Z,63.86
2022-11-10T13:44:37.064Z,63.96
2022-11-10T13:45:37.093Z,64.25
2022-11-10T13:46:37.100Z,64.53
2022-11-10T13:47:37.563Z,65.11
2022-11-10T13:48:37.129Z,65.58
2022-11-10T13:49:37.151Z,64.82
2022-11-10T13:50:37.228Z,65.48
2022-11-10T13:51:37.202Z,65.01
2022-11-10T13:52:37.386Z,65.48
2022-11-10T13:53:37.815Z,64.82
2022-11-10T13:54:37.993Z,66.16
2022-11-10T13:55:37.260Z,65.68
2022-11-10T13:56:37.507Z,65.68
2022-11-10T13:57:37.978Z,65.26
2022-11-10T13:58:37.302Z,65.07
2022-11-10T13:59:37.596Z,65.17
2022-11-10T14:00:37.517Z,66.41
2022-11-10T14:01:37.368Z,66.03
2022-11-10T14:02:37.327Z,66.22
2022-11-10T14:03:37.870Z,66.22
2022-11-10T14:04:37.794Z,66.6
2022-11-10T14:05:37.386Z,66.22
2022-11-10T14:06:37.975Z,66.7
2022-11-10T14:07:37.419Z,66.7
2022-11-10T14:08:37.423Z,66.13
2022-11-10T14:09:37.460Z,66.99
2022-11-10T14:10:37.460Z,66.89
2022-11-10T14:11:37.740Z,66.5
2022-11-10T14:12:37.748Z,67.46
2022-11-10T14:13:37.763Z,66.79
2022-11-10T14:14:37.507Z,67.52
2022-11-10T14:15:37.990Z,66.95
2022-11-10T14:16:37.808Z,66.85
2022-11-10T14:17:38.006Z,67.52
2022-11-10T14:18:37.559Z,67.71
2022-11-10T14:19:37.680Z,67.91
2022-11-10T14:20:37.715Z,67.62
2022-11-10T14:21:38.068Z,68.19
2022-11-10T14:22:38.057Z,68.19
2022-11-10T14:23:37.643Z,68.48
2022-11-10T14:24:37.763Z,68.29
2022-11-10T14:25:37.781Z,68.76
2022-11-10T14:26:37.688Z,69.53
2022-11-10T14:27:37.756Z,69.43
2022-11-10T14:28:37.717Z,69.72
2022-11-10T14:29:37.946Z,69.49
2022-11-10T14:30:37.742Z,69.59
2022-11-10T14:31:38.203Z,69.11
2022-11-10T14:32:37.776Z,70.36
2022-11-10T14:33:37.783Z,69.97
2022-11-10T14:34:38.045Z,70.36
2022-11-10T14:35:37.847Z,70.26
2022-11-10T14:36:37.932Z,70.54
2022-11-10T14:37:37.839Z,70.64
2022-11-10T14:38:37.839Z,71.12
2022-11-10T14:39:38.297Z,71.31
2022-11-10T14:40:37.989Z,71.31
2022-11-10T14:41:38.009Z,71.31
2022-11-10T14:42:37.922Z,71.31
2022-11-10T14:43:38.024Z,72.07
2022-11-10T14:44:37.937Z,72.36
2022-11-10T14:45:38.164Z,72.07
2022-11-10T14:46:40.835Z,72.64
2022-11-10T14:47:38.371Z,73.22
2022-11-10T14:48:37.969Z,73.03
2022-11-10T14:49:38.634Z,72.99
2022-11-10T14:50:38.006Z,73.28
2022-11-10T14:51:38.493Z,72.99
2022-11-10T14:52:38.088Z,73.66
2022-11-10T14:53:38.071Z,73.94
2022-11-10T14:54:38.110Z,73.85
2022-11-10T14:55:38.056Z,73.75
2022-11-10T14:56:38.065Z,74.61
2022-11-10T14:57:38.552Z,74.52
2022-11-10T14:58:38.208Z,74.42
2022-11-10T14:59:38.136Z,74.99
2022-11-10T15:00:38.142Z,74.61
2022-11-10T15:01:38.345Z,75.47
2022-11-10T15:02:38.259Z,75.28
2022-11-10T15:03:38.578Z,76.62
2022-11-10T15:04:38.466Z,76.52
2022-11-10T15:05:38.220Z,76.96
2022-11-10T15:06:40.859Z,77.15
2022-11-10T15:07:38.314Z,76.86
2022-11-10T15:08:38.816Z,76.96
2022-11-10T15:09:38.514Z,77.34
2022-11-10T15:10:39.346Z,76.96
2022-11-10T15:11:38.362Z,76.96
2022-11-10T15:12:44.866Z,77.34
2022-11-10T15:13:38.918Z,77.72
2022-11-10T15:14:38.317Z,77.53
2022-11-10T15:15:38.341Z,76.86
2022-11-10T15:16:38.350Z,77.06
2022-11-10T15:17:38.488Z,77.34
2022-11-10T15:18:38.365Z,77.06
2022-11-10T15:19:38.762Z,77.62
2022-11-10T15:20:38.882Z,77.25
2022-11-10T15:21:38.465Z,76.96
2022-11-10T15:22:38.679Z,77.25
2022-11-10T15:23:38.576Z,76.86
2022-11-10T15:24:38.949Z,77.59
2022-11-10T15:25:38.792Z,77.78
2022-11-10T15:26:38.563Z,77.87
2022-11-10T15:27:38.472Z,77.3
2022-11-10T15:28:38.463Z,78.06
2022-11-10T15:29:38.800Z,77.97
2022-11-10T15:30:38.490Z,77.87
2022-11-10T15:31:38.765Z,77.97
2022-11-10T15:32:38.963Z,78.44
2022-11-10T15:33:38.921Z,78.54
2022-11-10T15:34:38.542Z,78.44
2022-11-10T15:35:38.945Z,78.54
2022-11-10T15:36:38.818Z,78.83
2022-11-10T15:37:38.845Z,79.07
2022-11-10T15:38:38.864Z,78.78
2022-11-10T15:39:38.797Z,79.27
2022-11-10T15:40:38.618Z,79.36
2022-11-10T15:41:38.622Z,79.64
2022-11-10T15:42:38.905Z,80.02
2022-11-10T15:43:38.796Z,79.93
2022-11-10T15:44:38.962Z,80.12
2022-11-10T15:45:38.790Z,80.31
2022-11-10T15:46:38.689Z,80.88
2022-11-10T15:47:38.701Z,80.88
2022-11-10T15:48:39.166Z,81.17
2022-11-10T15:49:38.843Z,81.07
2022-11-10T15:50:38.723Z,81.98
2022-11-10T15:51:39.143Z,81.89
2022-11-10T15:52:39.027Z,82.46
2022-11-10T15:53:39.026Z,82.27
2022-11-10T15:54:38.796Z,82.65
2022-11-10T15:55:38.910Z,83.03
2022-11-10T15:56:38.910Z,83.13
2022-11-10T15:57:38.807Z,83.13
2022-11-10T15:58:39.083Z,83.41
2022-11-10T15:59:38.826Z,83.32
2022-11-10T16:00:38.857Z,83.41
2022-11-10T16:01:39.096Z,83.51
2022-11-10T16:02:39.135Z,83.7
2022-11-10T16:03:38.891Z,83.98
2022-11-10T16:04:38.902Z,83.85
2022-11-10T16:05:39.037Z,83.65
2022-11-10T16:06:39.004Z,84.23
2022-11-10T16:07:39.301Z,84.61
2022-11-10T16:08:39.372Z,84.33
2022-11-10T16:09:39.379Z,84.33
2022-11-10T16:10:39.220Z,84.52
2022-11-10T16:11:38.989Z,84.89
2022-11-10T16:12:39.239Z,84.61
2022-11-10T16:13:39.239Z,84.89
2022-11-10T16:14:39.269Z,84.99
2022-11-10T16:15:39.002Z,84.89
2022-11-10T16:16:39.132Z,85.37
2022-11-10T16:17:39.467Z,85.75
2022-11-10T16:18:44.802Z,85.94
2022-11-10T16:19:39.169Z,85.75
2022-11-10T16:20:39.320Z,85.94
2022-11-10T16:21:39.307Z,85.75
2022-11-10T16:22:39.087Z,85.28
2022-11-10T16:23:39.497Z,85.66
2022-11-10T16:24:39.215Z,86.7
2022-11-10T16:25:39.388Z,86.42
2022-11-10T16:26:39.573Z,86.51
2022-11-10T16:27:39.262Z,86.32
2022-11-10T16:28:39.161Z,87.18
2022-11-10T16:29:39.474Z,87.32
2022-11-10T16:30:39.439Z,87.32
2022-11-10T16:31:39.175Z,87.13
2022-11-10T16:32:39.403Z,87.52
2022-11-10T16:33:39.217Z,87.52
2022-11-10T16:34:39.238Z,87.8
2022-11-10T16:35:39.242Z,87.99
2022-11-10T16:36:39.501Z,88.28
2022-11-10T16:37:39.886Z,87.8
2022-11-10T16:38:39.262Z,88.37
2022-11-10T16:39:39.733Z,88.28
2022-11-10T16:40:39.287Z,88.56
2022-11-10T16:41:39.577Z,87.61
2022-11-10T16:42:39.290Z,87.9
2022-11-10T16:43:39.308Z,87.23
2022-11-10T16:44:44.740Z,87.52
2022-11-10T16:45:58.537Z,87.52
2022-11-10T16:46:39.388Z,88.56
2022-11-10T16:47:39.875Z,87.52
2022-11-10T16:48:39.424Z,88.56
2022-11-10T16:49:39.449Z,88.66
2022-11-10T16:50:39.392Z,89.23
2022-11-10T16:51:41.881Z,88.94
2022-11-10T16:52:39.403Z,89.23
2022-11-10T16:53:39.548Z,89.14
2022-11-10T16:54:39.447Z,88.75
2022-11-10T16:55:39.827Z,89.51
2022-11-10T16:56:39.668Z,88.94
2022-11-10T16:57:42.301Z,89.04
2022-11-10T16:58:39.498Z,89.04
2022-11-10T16:59:39.472Z,89.04
2022-11-10T17:00:40.824Z,89.23
2022-11-10T17:01:39.600Z,88.75
2022-11-10T17:02:39.669Z,89.61
2022-11-10T17:03:39.518Z,89.32
2022-11-10T17:04:39.552Z,89.51
2022-11-10T17:05:39.547Z,89.51
2022-11-10T17:06:40.213Z,89.89
2022-11-10T17:07:39.558Z,89.61
2022-11-10T17:08:40.097Z,89.14
2022-11-10T17:09:40.134Z,89.7
2022-11-10T17:10:39.773Z,89.42
2022-11-10T17:11:40.140Z,89.42
2022-11-10T17:12:39.823Z,89.14
2022-11-10T17:13:40.214Z,89.51
2022-11-10T17:14:40.044Z,89.14
2022-11-10T17:15:39.630Z,88.85
2022-11-10T17:16:39.658Z,88.94
2022-11-10T17:17:39.694Z,89.14
2022-11-10T17:18:39.712Z,89.04
2022-11-10T17:19:39.767Z,88.28
2022-11-10T17:20:39.804Z,88.18
2022-11-10T17:21:39.814Z,88.75
2022-11-10T17:22:39.706Z,88.66
2022-11-10T17:23:39.892Z,88.85
2022-11-10T17:24:39.752Z,88.85
2022-11-10T17:25:40.085Z,89.04
2022-11-10T17:26:40.050Z,88.37
2022-11-10T17:27:41.312Z,87.42
2022-11-10T17:28:39.755Z,88.37
2022-11-10T17:29:40.105Z,88.56
2022-11-10T17:30:39.801Z,88.37
2022-11-10T17:31:39.819Z,89.23
2022-11-10T17:33:06.173Z,89.61
2022-11-10T17:33:39.819Z,89.51
2022-11-10T17:34:39.825Z,89.61
2022-11-10T17:35:42.567Z,89.61
2022-11-10T17:36:39.829Z,89.42
2022-11-10T17:37:39.862Z,89.32
2022-11-10T17:38:40.150Z,89.42
2022-11-10T17:39:39.875Z,89.51
2022-11-10T17:40:39.895Z,88.85
2022-11-10T17:41:40.270Z,89.14
2022-11-10T17:42:39.909Z,89.14
2022-11-10T17:43:45.693Z,88.75
2022-11-10T17:44:39.933Z,89.23
2022-11-10T17:45:40.189Z,89.8
2022-11-10T17:46:40.050Z,89.99
2022-11-10T17:47:39.980Z,89.99
2022-11-10T17:48:40.583Z,89.51
2022-11-10T17:49:39.987Z,89.8
2022-11-10T17:50:40.264Z,89.66
2022-11-10T17:51:40.252Z,89.94
2022-11-10T17:52:40.261Z,89.99
2022-11-10T17:53:40.001Z,89.85
2022-11-10T17:54:40.317Z,89.8
2022-11-10T17:55:40.038Z,90.04
2022-11-10T17:56:40.308Z,89.89
2022-11-10T17:57:40.598Z,89.8
2022-11-10T17:58:40.182Z,89.51
2022-11-10T17:59:40.507Z,89.32
2022-11-10T18:00:40.607Z,89.99
2022-11-10T18:01:40.278Z,89.7
2022-11-10T18:02:40.711Z,89.42
2022-11-10T18:03:40.224Z,89.23
2022-11-10T18:04:40.119Z,89.61
2022-11-10T18:05:40.239Z,89.28
2022-11-10T18:06:40.221Z,89.47
2022-11-10T18:07:40.424Z,89.47
2022-11-10T18:08:40.150Z,89.47
2022-11-10T18:09:40.427Z,89.37
2022-11-10T18:10:40.183Z,89.94
2022-11-10T18:11:40.439Z,89.94
2022-11-10T18:12:40.318Z,90.33
2022-11-10T18:13:40.437Z,90.61
2022-11-10T18:14:40.321Z,90.42
2022-11-10T18:15:41.148Z,90.52
2022-11-10T18:16:40.713Z,89.75
2022-11-10T18:17:40.690Z,90.61
2022-11-10T18:18:40.361Z,90.42
2022-11-10T18:19:40.368Z,90.04
2022-11-10T18:20:41.553Z,90.04
2022-11-10T18:21:41.151Z,90.52
2022-11-10T18:22:40.440Z,90.18
2022-11-10T18:23:40.739Z,89.75
2022-11-10T18:24:40.431Z,89.94
2022-11-10T18:25:40.445Z,90.14
2022-11-10T18:26:40.448Z,90.8
2022-11-10T18:27:40.368Z,90.33
2022-11-10T18:28:40.536Z,90.52
2022-11-10T18:29:40.605Z,90.52
2022-11-10T18:30:40.529Z,90.52
2022-11-10T18:31:40.827Z,90.52
2022-11-10T18:32:40.403Z,91.08
2022-11-10T18:33:40.515Z,90.8
2022-11-10T18:34:40.518Z,90.89
2022-11-10T18:35:40.538Z,90.61
2022-11-10T18:36:40.542Z,90.8
2022-11-10T18:37:41.637Z,91.28
2022-11-10T18:38:40.450Z,91.08
2022-11-10T18:39:40.576Z,90.33
2022-11-10T18:40:41.402Z,90.52
2022-11-10T18:41:40.474Z,90.42
2022-11-10T18:42:40.481Z,90.61
2022-11-10T18:43:40.496Z,90.52
2022-11-10T18:44:40.513Z,90.7
2022-11-10T18:45:40.890Z,90.23
2022-11-10T18:46:40.773Z,90.33
2022-11-10T18:47:41.541Z,90.52
2022-11-10T18:48:40.670Z,90.52
2022-11-10T18:49:41.493Z,91.37
2022-11-10T18:50:40.645Z,90.52
2022-11-10T18:51:40.656Z,90.42
2022-11-10T18:52:40.586Z,90.89
2022-11-10T18:53:40.838Z,91.18
2022-11-10T18:54:40.611Z,91.08
2022-11-10T18:55:45.793Z,90.52
2022-11-10T18:56:40.618Z,91.18
2022-11-10T18:57:40.624Z,90.89
2022-11-10T18:58:40.744Z,91.18
2022-11-10T18:59:40.669Z,90.7
2022-11-10T19:00:40.682Z,90.89
2022-11-10T19:01:41.195Z,91.18
2022-11-10T19:02:40.681Z,91.37
2022-11-10T19:03:41.077Z,91.47
2022-11-10T19:04:40.705Z,91.37
2022-11-10T19:05:40.707Z,91.52
2022-11-10T19:06:40.879Z,91.99
2022-11-10T19:07:41.631Z,92.08
2022-11-10T19:08:40.817Z,91.89
2022-11-10T19:09:40.863Z,92.85
2022-11-10T19:10:40.868Z,92.46
2022-11-10T19:11:40.900Z,93.04
2022-11-10T19:12:40.777Z,93.04
2022-11-10T19:13:40.791Z,92.94
2022-11-10T19:14:40.793Z,92.46
2022-11-10T19:15:40.822Z,93.23
2022-11-10T19:16:40.808Z,93.89
2022-11-10T19:17:40.959Z,93.89
2022-11-10T19:18:40.849Z,93.79
2022-11-10T19:19:41.336Z,93.6
2022-11-10T19:20:40.860Z,93.6
2022-11-10T19:21:41.270Z,94.08
2022-11-10T19:22:40.869Z,93.79
2022-11-10T19:23:40.881Z,93.6
2022-11-10T19:25:09.266Z,94.18
2022-11-10T19:25:41.162Z,94.37
2022-11-10T19:26:40.906Z,94.18
2022-11-10T19:27:41.012Z,94.37